sensor_id;sensor_type;location;lat;lon;timestamp;P1;durP1;ratioP1;P2;durP2;ratioP2
15240;SDS011;7723;52.170;9.978;2023-04-22T00:00:26;10.40;;;7.55;;
15240;SDS011;7723;52.170;9.978;2023-04-22T00:02:53;10.50;;;7.40;;
15240;SDS011;7723;52.170;9.978;2023-04-22T00:05:21;11.07;;;7.13;;
15240;SDS011;7723;52.170;9.978;2023-04-22T00:07:49;9.65;;;6.82;;
15240;SDS011;7723;52.170;9.978;2023-04-22T00:10:17;8.82;;;6.72;;
15240;SDS011;7723;52.170;9.978;2023-04-22T00:12:44;11.82;;;7.28;;
15240;SDS011;7723;52.170;9.978;2023-04-22T00:15:11;10.23;;;7.15;;
15240;SDS011;7723;52.170;9.978;2023-04-22T00:17:38;9.60;;;7.25;;
15240;SDS011;7723;52.170;9.978;2023-04-22T00:20:07;9.15;;;6.57;;
15240;SDS011;7723;52.170;9.978;2023-04-22T00:22:35;12.32;;;6.95;;
15240;SDS011;7723;52.170;9.978;2023-04-22T00:25:05;8.65;;;7.10;;
15240;SDS011;7723;52.170;9.978;2023-04-22T00:27:32;9.05;;;6.32;;
15240;SDS011;7723;52.170;9.978;2023-04-22T00:29:59;12.27;;;6.80;;
15240;SDS011;7723;52.170;9.978;2023-04-22T00:32:27;9.93;;;7.70;;
15240;SDS011;7723;52.170;9.978;2023-04-22T00:34:54;8.75;;;6.45;;
15240;SDS011;7723;52.170;9.978;2023-04-22T00:37:21;9.70;;;7.18;;
15240;SDS011;7723;52.170;9.978;2023-04-22T00:39:49;10.70;;;7.32;;
15240;SDS011;7723;52.170;9.978;2023-04-22T00:42:17;7.40;;;6.22;;
15240;SDS011;7723;52.170;9.978;2023-04-22T00:44:45;11.23;;;8.30;;
15240;SDS011;7723;52.170;9.978;2023-04-22T00:47:13;11.98;;;7.63;;
15240;SDS011;7723;52.170;9.978;2023-04-22T00:49:41;9.38;;;6.97;;
15240;SDS011;7723;52.170;9.978;2023-04-22T00:52:08;9.40;;;7.22;;
15240;SDS011;7723;52.170;9.978;2023-04-22T00:54:36;8.48;;;7.07;;
15240;SDS011;7723;52.170;9.978;2023-04-22T00:57:05;9.80;;;7.53;;
15240;SDS011;7723;52.170;9.978;2023-04-22T00:59:34;9.98;;;7.15;;
15240;SDS011;7723;52.170;9.978;2023-04-22T01:02:02;12.98;;;6.97;;
15240;SDS011;7723;52.170;9.978;2023-04-22T01:04:29;10.23;;;8.02;;
15240;SDS011;7723;52.170;9.978;2023-04-22T01:06:57;8.30;;;6.82;;
15240;SDS011;7723;52.170;9.978;2023-04-22T01:09:24;10.32;;;7.55;;
15240;SDS011;7723;52.170;9.978;2023-04-22T01:11:52;10.70;;;7.78;;
15240;SDS011;7723;52.170;9.978;2023-04-22T01:14:20;10.40;;;7.78;;
15240;SDS011;7723;52.170;9.978;2023-04-22T01:16:49;10.38;;;8.20;;
15240;SDS011;7723;52.170;9.978;2023-04-22T01:19:18;11.60;;;7.32;;
15240;SDS011;7723;52.170;9.978;2023-04-22T01:21:45;10.88;;;8.27;;
15240;SDS011;7723;52.170;9.978;2023-04-22T01:24:15;10.43;;;7.38;;
15240;SDS011;7723;52.170;9.978;2023-04-22T01:26:42;11.85;;;8.60;;
15240;SDS011;7723;52.170;9.978;2023-04-22T01:29:09;12.85;;;7.60;;
15240;SDS011;7723;52.170;9.978;2023-04-22T01:31:37;13.30;;;8.48;;
15240;SDS011;7723;52.170;9.978;2023-04-22T01:34:04;9.68;;;7.78;;
15240;SDS011;7723;52.170;9.978;2023-04-22T01:36:31;11.50;;;7.90;;
15240;SDS011;7723;52.170;9.978;2023-04-22T01:38:59;10.88;;;7.63;;
15240;SDS011;7723;52.170;9.978;2023-04-22T01:41:28;11.30;;;8.27;;
15240;SDS011;7723;52.170;9.978;2023-04-22T01:43:56;9.90;;;7.65;;
15240;SDS011;7723;52.170;9.978;2023-04-22T01:46:28;12.30;;;8.48;;
15240;SDS011;7723;52.170;9.978;2023-04-22T01:48:55;8.40;;;7.35;;
15240;SDS011;7723;52.170;9.978;2023-04-22T01:51:22;9.90;;;8.00;;
15240;SDS011;7723;52.170;9.978;2023-04-22T01:53:50;13.05;;;7.50;;
15240;SDS011;7723;52.170;9.978;2023-04-22T01:56:17;9.27;;;7.57;;
15240;SDS011;7723;52.170;9.978;2023-04-22T01:58:46;11.35;;;6.95;;
15240;SDS011;7723;52.170;9.978;2023-04-22T02:01:13;8.85;;;7.57;;
15240;SDS011;7723;52.170;9.978;2023-04-22T02:03:40;7.97;;;6.90;;
15240;SDS011;7723;52.170;9.978;2023-04-22T02:06:07;9.48;;;6.82;;
15240;SDS011;7723;52.170;9.978;2023-04-22T02:08:34;10.60;;;7.32;;
15240;SDS011;7723;52.170;9.978;2023-04-22T02:11:02;11.48;;;7.72;;
15240;SDS011;7723;52.170;9.978;2023-04-22T02:13:33;8.95;;;7.25;;
15240;SDS011;7723;52.170;9.978;2023-04-22T02:16:02;8.38;;;6.93;;
15240;SDS011;7723;52.170;9.978;2023-04-22T02:18:30;7.90;;;7.03;;
15240;SDS011;7723;52.170;9.978;2023-04-22T02:20:57;8.77;;;7.10;;
15240;SDS011;7723;52.170;9.978;2023-04-22T02:23:24;9.10;;;6.53;;
15240;SDS011;7723;52.170;9.978;2023-04-22T02:25:52;8.40;;;6.63;;
15240;SDS011;7723;52.170;9.978;2023-04-22T02:28:20;9.35;;;7.53;;
15240;SDS011;7723;52.170;9.978;2023-04-22T02:30:47;9.48;;;6.90;;
15240;SDS011;7723;52.170;9.978;2023-04-22T02:33:16;10.32;;;6.85;;
15240;SDS011;7723;52.170;9.978;2023-04-22T02:35:43;10.90;;;6.65;;
15240;SDS011;7723;52.170;9.978;2023-04-22T02:38:11;10.45;;;6.72;;
15240;SDS011;7723;52.170;9.978;2023-04-22T02:40:38;10.68;;;6.97;;
15240;SDS011;7723;52.170;9.978;2023-04-22T02:43:05;9.15;;;7.28;;
15240;SDS011;7723;52.170;9.978;2023-04-22T02:45:32;10.05;;;6.90;;
15240;SDS011;7723;52.170;9.978;2023-04-22T02:48:00;8.57;;;6.93;;
15240;SDS011;7723;52.170;9.978;2023-04-22T02:50:28;10.25;;;6.97;;
15240;SDS011;7723;52.170;9.978;2023-04-22T02:52:55;11.05;;;7.00;;
15240;SDS011;7723;52.170;9.978;2023-04-22T02:55:22;9.52;;;6.75;;
15240;SDS011;7723;52.170;9.978;2023-04-22T02:57:49;9.63;;;7.10;;
15240;SDS011;7723;52.170;9.978;2023-04-22T03:00:17;9.05;;;6.75;;
15240;SDS011;7723;52.170;9.978;2023-04-22T03:02:47;12.25;;;7.30;;
15240;SDS011;7723;52.170;9.978;2023-04-22T03:05:14;10.10;;;7.03;;
15240;SDS011;7723;52.170;9.978;2023-04-22T03:07:43;9.40;;;6.72;;
15240;SDS011;7723;52.170;9.978;2023-04-22T03:10:11;9.50;;;7.13;;
15240;SDS011;7723;52.170;9.978;2023-04-22T03:12:38;11.38;;;7.40;;
15240;SDS011;7723;52.170;9.978;2023-04-22T03:15:07;10.25;;;7.05;;
15240;SDS011;7723;52.170;9.978;2023-04-22T03:17:34;11.75;;;7.05;;
15240;SDS011;7723;52.170;9.978;2023-04-22T03:20:01;10.68;;;7.40;;
15240;SDS011;7723;52.170;9.978;2023-04-22T03:22:30;9.13;;;7.60;;
15240;SDS011;7723;52.170;9.978;2023-04-22T03:24:59;12.98;;;7.18;;
15240;SDS011;7723;52.170;9.978;2023-04-22T03:27:26;11.77;;;7.15;;
15240;SDS011;7723;52.170;9.978;2023-04-22T03:29:53;8.30;;;6.35;;
15240;SDS011;7723;52.170;9.978;2023-04-22T03:32:20;12.80;;;7.28;;
15240;SDS011;7723;52.170;9.978;2023-04-22T03:34:47;10.68;;;6.65;;
15240;SDS011;7723;52.170;9.978;2023-04-22T03:37:14;12.27;;;7.50;;
15240;SDS011;7723;52.170;9.978;2023-04-22T03:39:41;8.32;;;6.70;;
15240;SDS011;7723;52.170;9.978;2023-04-22T03:42:12;8.35;;;6.97;;
15240;SDS011;7723;52.170;9.978;2023-04-22T03:44:39;10.43;;;7.13;;
15240;SDS011;7723;52.170;9.978;2023-04-22T03:47:06;11.02;;;7.30;;
15240;SDS011;7723;52.170;9.978;2023-04-22T03:49:33;12.18;;;7.70;;
15240;SDS011;7723;52.170;9.978;2023-04-22T03:52:00;13.80;;;8.02;;
15240;SDS011;7723;52.170;9.978;2023-04-22T03:54:28;11.40;;;7.50;;
15240;SDS011;7723;52.170;9.978;2023-04-22T03:56:55;11.02;;;7.47;;
15240;SDS011;7723;52.170;9.978;2023-04-22T03:59:23;9.43;;;7.22;;
15240;SDS011;7723;52.170;9.978;2023-04-22T04:01:51;10.20;;;7.65;;
15240;SDS011;7723;52.170;9.978;2023-04-22T04:04:18;10.57;;;7.53;;
15240;SDS011;7723;52.170;9.978;2023-04-22T04:06:47;10.65;;;8.25;;
15240;SDS011;7723;52.170;9.978;2023-04-22T04:09:14;12.88;;;8.35;;
15240;SDS011;7723;52.170;9.978;2023-04-22T04:11:41;10.43;;;7.78;;
15240;SDS011;7723;52.170;9.978;2023-04-22T04:14:08;12.77;;;8.05;;
15240;SDS011;7723;52.170;9.978;2023-04-22T04:16:36;10.73;;;8.07;;
15240;SDS011;7723;52.170;9.978;2023-04-22T04:19:04;11.98;;;8.18;;
15240;SDS011;7723;52.170;9.978;2023-04-22T04:21:31;11.73;;;8.73;;
15240;SDS011;7723;52.170;9.978;2023-04-22T04:23:59;10.05;;;7.72;;
15240;SDS011;7723;52.170;9.978;2023-04-22T04:26:26;13.20;;;8.35;;
15240;SDS011;7723;52.170;9.978;2023-04-22T04:28:54;11.23;;;8.43;;
15240;SDS011;7723;52.170;9.978;2023-04-22T04:31:21;9.50;;;7.50;;
15240;SDS011;7723;52.170;9.978;2023-04-22T04:33:51;12.15;;;8.27;;
15240;SDS011;7723;52.170;9.978;2023-04-22T04:36:18;11.50;;;8.30;;
15240;SDS011;7723;52.170;9.978;2023-04-22T04:38:45;11.15;;;8.25;;
15240;SDS011;7723;52.170;9.978;2023-04-22T04:41:12;10.88;;;8.25;;
15240;SDS011;7723;52.170;9.978;2023-04-22T04:43:40;13.43;;;7.90;;
15240;SDS011;7723;52.170;9.978;2023-04-22T04:46:10;14.18;;;8.60;;
15240;SDS011;7723;52.170;9.978;2023-04-22T04:48:37;12.73;;;8.02;;
15240;SDS011;7723;52.170;9.978;2023-04-22T04:51:07;12.00;;;8.45;;
15240;SDS011;7723;52.170;9.978;2023-04-22T04:53:35;11.38;;;8.73;;
15240;SDS011;7723;52.170;9.978;2023-04-22T04:56:02;10.05;;;6.97;;
15240;SDS011;7723;52.170;9.978;2023-04-22T04:58:30;8.68;;;6.95;;
15240;SDS011;7723;52.170;9.978;2023-04-22T05:00:57;9.23;;;7.22;;
15240;SDS011;7723;52.170;9.978;2023-04-22T05:03:24;9.88;;;7.25;;
15240;SDS011;7723;52.170;9.978;2023-04-22T05:05:51;9.98;;;6.90;;
15240;SDS011;7723;52.170;9.978;2023-04-22T05:08:20;8.90;;;6.57;;
15240;SDS011;7723;52.170;9.978;2023-04-22T05:10:47;11.13;;;5.80;;
15240;SDS011;7723;52.170;9.978;2023-04-22T05:13:14;8.82;;;6.20;;
15240;SDS011;7723;52.170;9.978;2023-04-22T05:15:41;8.65;;;5.70;;
15240;SDS011;7723;52.170;9.978;2023-04-22T05:18:09;11.30;;;5.43;;
15240;SDS011;7723;52.170;9.978;2023-04-22T05:20:36;7.05;;;5.32;;
15240;SDS011;7723;52.170;9.978;2023-04-22T05:23:04;7.13;;;5.15;;
15240;SDS011;7723;52.170;9.978;2023-04-22T05:25:32;7.70;;;5.40;;
15240;SDS011;7723;52.170;9.978;2023-04-22T05:27:59;9.88;;;4.95;;
15240;SDS011;7723;52.170;9.978;2023-04-22T05:30:26;6.85;;;3.40;;
15240;SDS011;7723;52.170;9.978;2023-04-22T05:32:53;4.95;;;3.53;;
15240;SDS011;7723;52.170;9.978;2023-04-22T05:35:20;6.45;;;3.28;;
15240;SDS011;7723;52.170;9.978;2023-04-22T05:37:47;8.20;;;3.78;;
15240;SDS011;7723;52.170;9.978;2023-04-22T05:40:14;5.18;;;3.60;;
15240;SDS011;7723;52.170;9.978;2023-04-22T05:42:43;5.50;;;3.70;;
15240;SDS011;7723;52.170;9.978;2023-04-22T05:45:10;4.35;;;3.53;;
15240;SDS011;7723;52.170;9.978;2023-04-22T05:47:37;5.88;;;3.33;;
15240;SDS011;7723;52.170;9.978;2023-04-22T05:50:05;4.57;;;3.10;;
15240;SDS011;7723;52.170;9.978;2023-04-22T05:52:33;6.47;;;3.53;;
15240;SDS011;7723;52.170;9.978;2023-04-22T05:55:00;6.03;;;3.35;;
15240;SDS011;7723;52.170;9.978;2023-04-22T05:57:27;6.80;;;3.10;;
15240;SDS011;7723;52.170;9.978;2023-04-22T05:59:55;3.35;;;3.00;;
15240;SDS011;7723;52.170;9.978;2023-04-22T06:02:24;5.53;;;3.17;;
15240;SDS011;7723;52.170;9.978;2023-04-22T06:04:51;4.65;;;3.28;;
15240;SDS011;7723;52.170;9.978;2023-04-22T06:07:18;6.90;;;3.42;;
15240;SDS011;7723;52.170;9.978;2023-04-22T06:09:45;6.78;;;3.75;;
15240;SDS011;7723;52.170;9.978;2023-04-22T06:12:12;6.35;;;3.50;;
15240;SDS011;7723;52.170;9.978;2023-04-22T06:14:39;8.10;;;3.60;;
15240;SDS011;7723;52.170;9.978;2023-04-22T06:17:08;3.25;;;2.90;;
15240;SDS011;7723;52.170;9.978;2023-04-22T06:19:35;4.82;;;3.45;;
15240;SDS011;7723;52.170;9.978;2023-04-22T06:22:02;7.85;;;3.65;;
15240;SDS011;7723;52.170;9.978;2023-04-22T06:24:29;5.47;;;3.10;;
15240;SDS011;7723;52.170;9.978;2023-04-22T06:26:56;5.05;;;3.65;;
15240;SDS011;7723;52.170;9.978;2023-04-22T06:29:23;7.13;;;3.97;;
15240;SDS011;7723;52.170;9.978;2023-04-22T06:31:50;8.52;;;4.00;;
15240;SDS011;7723;52.170;9.978;2023-04-22T06:34:20;3.83;;;3.00;;
15240;SDS011;7723;52.170;9.978;2023-04-22T06:36:47;4.40;;;3.50;;
15240;SDS011;7723;52.170;9.978;2023-04-22T06:39:15;8.93;;;3.50;;
15240;SDS011;7723;52.170;9.978;2023-04-22T06:41:42;6.28;;;3.72;;
15240;SDS011;7723;52.170;9.978;2023-04-22T06:44:09;5.53;;;3.80;;
15240;SDS011;7723;52.170;9.978;2023-04-22T06:46:36;5.63;;;3.38;;
15240;SDS011;7723;52.170;9.978;2023-04-22T06:49:03;6.20;;;3.75;;
15240;SDS011;7723;52.170;9.978;2023-04-22T06:51:32;8.00;;;3.85;;
15240;SDS011;7723;52.170;9.978;2023-04-22T06:54:00;5.15;;;3.55;;
15240;SDS011;7723;52.170;9.978;2023-04-22T06:56:27;8.23;;;3.75;;
15240;SDS011;7723;52.170;9.978;2023-04-22T06:58:54;7.40;;;3.70;;
15240;SDS011;7723;52.170;9.978;2023-04-22T07:01:21;6.63;;;3.85;;
15240;SDS011;7723;52.170;9.978;2023-04-22T07:03:48;8.75;;;3.88;;
15240;SDS011;7723;52.170;9.978;2023-04-22T07:06:15;6.90;;;4.00;;
15240;SDS011;7723;52.170;9.978;2023-04-22T07:08:43;6.95;;;3.17;;
15240;SDS011;7723;52.170;9.978;2023-04-22T07:11:11;8.18;;;3.72;;
15240;SDS011;7723;52.170;9.978;2023-04-22T07:13:38;6.13;;;3.67;;
15240;SDS011;7723;52.170;9.978;2023-04-22T07:16:05;7.95;;;3.90;;
15240;SDS011;7723;52.170;9.978;2023-04-22T07:18:32;10.40;;;6.25;;
15240;SDS011;7723;52.170;9.978;2023-04-22T07:21:00;27.48;;;11.02;;
15240;SDS011;7723;52.170;9.978;2023-04-22T07:23:27;10.93;;;4.97;;
15240;SDS011;7723;52.170;9.978;2023-04-22T07:25:55;11.02;;;4.68;;
15240;SDS011;7723;52.170;9.978;2023-04-22T07:28:22;8.27;;;4.03;;
15240;SDS011;7723;52.170;9.978;2023-04-22T07:30:49;6.18;;;3.78;;
15240;SDS011;7723;52.170;9.978;2023-04-22T07:33:17;6.05;;;3.10;;
15240;SDS011;7723;52.170;9.978;2023-04-22T07:35:44;5.22;;;3.53;;
15240;SDS011;7723;52.170;9.978;2023-04-22T07:38:11;6.25;;;3.25;;
15240;SDS011;7723;52.170;9.978;2023-04-22T07:40:39;7.70;;;4.53;;
15240;SDS011;7723;52.170;9.978;2023-04-22T07:43:07;6.43;;;3.65;;
15240;SDS011;7723;52.170;9.978;2023-04-22T07:45:35;7.53;;;3.50;;
15240;SDS011;7723;52.170;9.978;2023-04-22T07:48:02;4.95;;;3.20;;
15240;SDS011;7723;52.170;9.978;2023-04-22T07:50:30;4.40;;;3.20;;
15240;SDS011;7723;52.170;9.978;2023-04-22T07:52:57;5.60;;;3.70;;
15240;SDS011;7723;52.170;9.978;2023-04-22T07:55:25;4.90;;;3.67;;
15240;SDS011;7723;52.170;9.978;2023-04-22T07:57:52;5.30;;;2.90;;
15240;SDS011;7723;52.170;9.978;2023-04-22T08:00:21;4.50;;;3.08;;
15240;SDS011;7723;52.170;9.978;2023-04-22T08:02:48;6.15;;;3.22;;
15240;SDS011;7723;52.170;9.978;2023-04-22T08:05:15;4.05;;;3.20;;
15240;SDS011;7723;52.170;9.978;2023-04-22T08:07:42;3.53;;;3.15;;
15240;SDS011;7723;52.170;9.978;2023-04-22T08:10:10;3.75;;;2.97;;
15240;SDS011;7723;52.170;9.978;2023-04-22T08:12:37;6.13;;;3.13;;
15240;SDS011;7723;52.170;9.978;2023-04-22T08:15:05;5.47;;;2.80;;
15240;SDS011;7723;52.170;9.978;2023-04-22T08:17:34;5.82;;;3.30;;
15240;SDS011;7723;52.170;9.978;2023-04-22T08:20:01;6.03;;;2.88;;
15240;SDS011;7723;52.170;9.978;2023-04-22T08:22:29;4.05;;;3.10;;
15240;SDS011;7723;52.170;9.978;2023-04-22T08:24:58;4.15;;;3.00;;
15240;SDS011;7723;52.170;9.978;2023-04-22T08:27:25;3.53;;;2.95;;
15240;SDS011;7723;52.170;9.978;2023-04-22T08:29:52;3.28;;;2.97;;
15240;SDS011;7723;52.170;9.978;2023-04-22T08:32:19;5.82;;;2.90;;
15240;SDS011;7723;52.170;9.978;2023-04-22T08:34:51;4.18;;;3.03;;
15240;SDS011;7723;52.170;9.978;2023-04-22T08:37:18;3.05;;;2.55;;
15240;SDS011;7723;52.170;9.978;2023-04-22T08:39:46;4.97;;;3.17;;
15240;SDS011;7723;52.170;9.978;2023-04-22T08:42:13;7.97;;;3.70;;
15240;SDS011;7723;52.170;9.978;2023-04-22T08:44:41;5.20;;;3.10;;
15240;SDS011;7723;52.170;9.978;2023-04-22T08:47:10;6.32;;;2.72;;
15240;SDS011;7723;52.170;9.978;2023-04-22T08:49:39;4.40;;;3.17;;
15240;SDS011;7723;52.170;9.978;2023-04-22T08:52:09;3.15;;;2.50;;
15240;SDS011;7723;52.170;9.978;2023-04-22T08:54:39;6.85;;;3.00;;
15240;SDS011;7723;52.170;9.978;2023-04-22T08:57:06;5.10;;;2.80;;
15240;SDS011;7723;52.170;9.978;2023-04-22T08:59:36;31.58;;;6.07;;
15240;SDS011;7723;52.170;9.978;2023-04-22T09:02:04;17.80;;;4.50;;
15240;SDS011;7723;52.170;9.978;2023-04-22T09:04:32;9.35;;;2.95;;
15240;SDS011;7723;52.170;9.978;2023-04-22T09:07:00;9.65;;;4.00;;
15240;SDS011;7723;52.170;9.978;2023-04-22T09:09:29;7.90;;;3.50;;
15240;SDS011;7723;52.170;9.978;2023-04-22T09:11:57;36.38;;;10.18;;
15240;SDS011;7723;52.170;9.978;2023-04-22T09:14:25;4.80;;;2.83;;
15240;SDS011;7723;52.170;9.978;2023-04-22T09:16:53;3.55;;;2.63;;
15240;SDS011;7723;52.170;9.978;2023-04-22T09:19:23;7.93;;;3.55;;
15240;SDS011;7723;52.170;9.978;2023-04-22T09:21:51;7.05;;;3.83;;
15240;SDS011;7723;52.170;9.978;2023-04-22T09:24:18;23.77;;;6.68;;
15240;SDS011;7723;52.170;9.978;2023-04-22T09:26:48;12.73;;;5.18;;
15240;SDS011;7723;52.170;9.978;2023-04-22T09:29:15;17.10;;;4.30;;
15240;SDS011;7723;52.170;9.978;2023-04-22T09:31:46;25.58;;;5.85;;
15240;SDS011;7723;52.170;9.978;2023-04-22T09:34:14;13.77;;;3.90;;
15240;SDS011;7723;52.170;9.978;2023-04-22T09:36:42;13.45;;;5.15;;
15240;SDS011;7723;52.170;9.978;2023-04-22T09:39:10;4.72;;;3.20;;
15240;SDS011;7723;52.170;9.978;2023-04-22T09:41:38;5.85;;;3.10;;
15240;SDS011;7723;52.170;9.978;2023-04-22T09:44:09;8.32;;;5.05;;
15240;SDS011;7723;52.170;9.978;2023-04-22T09:46:37;5.18;;;2.90;;
15240;SDS011;7723;52.170;9.978;2023-04-22T09:49:08;5.50;;;3.10;;
15240;SDS011;7723;52.170;9.978;2023-04-22T09:51:39;9.60;;;4.63;;
15240;SDS011;7723;52.170;9.978;2023-04-22T09:54:07;18.42;;;5.82;;
15240;SDS011;7723;52.170;9.978;2023-04-22T09:56:39;9.23;;;4.85;;
15240;SDS011;7723;52.170;9.978;2023-04-22T09:59:09;8.07;;;4.90;;
15240;SDS011;7723;52.170;9.978;2023-04-22T10:01:37;10.63;;;4.25;;
15240;SDS011;7723;52.170;9.978;2023-04-22T10:04:05;4.72;;;2.58;;
15240;SDS011;7723;52.170;9.978;2023-04-22T10:06:33;12.20;;;4.70;;
15240;SDS011;7723;52.170;9.978;2023-04-22T10:09:01;5.35;;;2.35;;
15240;SDS011;7723;52.170;9.978;2023-04-22T10:11:31;2.53;;;1.92;;
15240;SDS011;7723;52.170;9.978;2023-04-22T10:14:00;5.95;;;2.30;;
15240;SDS011;7723;52.170;9.978;2023-04-22T10:16:31;2.65;;;1.88;;
15240;SDS011;7723;52.170;9.978;2023-04-22T10:19:00;13.60;;;4.82;;
15240;SDS011;7723;52.170;9.978;2023-04-22T10:21:30;10.02;;;4.07;;
15240;SDS011;7723;52.170;9.978;2023-04-22T10:24:00;30.85;;;5.60;;
15240;SDS011;7723;52.170;9.978;2023-04-22T10:26:40;18.77;;;6.35;;
15240;SDS011;7723;52.170;9.978;2023-04-22T10:29:08;11.23;;;4.78;;
15240;SDS011;7723;52.170;9.978;2023-04-22T10:31:43;10.25;;;4.22;;
15240;SDS011;7723;52.170;9.978;2023-04-22T10:34:11;45.95;;;11.50;;
15240;SDS011;7723;52.170;9.978;2023-04-22T10:36:52;9.35;;;3.30;;
15240;SDS011;7723;52.170;9.978;2023-04-22T10:39:25;3.60;;;2.60;;
15240;SDS011;7723;52.170;9.978;2023-04-22T10:41:55;12.45;;;3.70;;
15240;SDS011;7723;52.170;9.978;2023-04-22T10:44:44;6.00;;;3.08;;
15240;SDS011;7723;52.170;9.978;2023-04-22T10:47:24;3.05;;;2.35;;
15240;SDS011;7723;52.170;9.978;2023-04-22T10:52:40;2.42;;;2.05;;
15240;SDS011;7723;52.170;9.978;2023-04-22T10:55:09;3.35;;;2.42;;
15240;SDS011;7723;52.170;9.978;2023-04-22T10:57:37;3.28;;;2.17;;
15240;SDS011;7723;52.170;9.978;2023-04-22T11:00:26;3.85;;;2.30;;
15240;SDS011;7723;52.170;9.978;2023-04-22T11:03:07;2.88;;;2.30;;
15240;SDS011;7723;52.170;9.978;2023-04-22T11:05:36;3.78;;;2.70;;
15240;SDS011;7723;52.170;9.978;2023-04-22T11:08:04;2.88;;;2.30;;
15240;SDS011;7723;52.170;9.978;2023-04-22T11:10:33;3.60;;;2.25;;
15240;SDS011;7723;52.170;9.978;2023-04-22T11:13:05;2.85;;;2.30;;
15240;SDS011;7723;52.170;9.978;2023-04-22T11:15:34;4.55;;;2.20;;
15240;SDS011;7723;52.170;9.978;2023-04-22T11:18:02;3.75;;;2.90;;
15240;SDS011;7723;52.170;9.978;2023-04-22T11:20:36;2.60;;;2.22;;
15240;SDS011;7723;52.170;9.978;2023-04-22T11:23:03;7.15;;;2.83;;
15240;SDS011;7723;52.170;9.978;2023-04-22T11:25:30;9.93;;;3.03;;
15240;SDS011;7723;52.170;9.978;2023-04-22T11:27:58;8.80;;;3.42;;
15240;SDS011;7723;52.170;9.978;2023-04-22T11:30:26;5.47;;;2.92;;
15240;SDS011;7723;52.170;9.978;2023-04-22T11:32:56;6.15;;;3.97;;
15240;SDS011;7723;52.170;9.978;2023-04-22T11:35:27;4.78;;;2.70;;
15240;SDS011;7723;52.170;9.978;2023-04-22T11:37:56;3.15;;;2.78;;
15240;SDS011;7723;52.170;9.978;2023-04-22T11:40:26;6.85;;;2.55;;
15240;SDS011;7723;52.170;9.978;2023-04-22T11:42:55;4.60;;;2.72;;
15240;SDS011;7723;52.170;9.978;2023-04-22T11:45:23;4.25;;;2.70;;
15240;SDS011;7723;52.170;9.978;2023-04-22T11:47:52;6.55;;;3.50;;
15240;SDS011;7723;52.170;9.978;2023-04-22T11:50:20;5.00;;;2.70;;
15240;SDS011;7723;52.170;9.978;2023-04-22T11:52:51;3.70;;;2.80;;
15240;SDS011;7723;52.170;9.978;2023-04-22T11:55:21;3.95;;;2.90;;
15240;SDS011;7723;52.170;9.978;2023-04-22T11:57:51;12.73;;;4.68;;
15240;SDS011;7723;52.170;9.978;2023-04-22T12:00:20;4.82;;;3.38;;
15240;SDS011;7723;52.170;9.978;2023-04-22T12:02:54;10.73;;;3.22;;
15240;SDS011;7723;52.170;9.978;2023-04-22T12:05:32;3.60;;;2.78;;
15240;SDS011;7723;52.170;9.978;2023-04-22T12:08:03;6.20;;;3.00;;
15240;SDS011;7723;52.170;9.978;2023-04-22T12:10:32;3.97;;;2.60;;
15240;SDS011;7723;52.170;9.978;2023-04-22T12:13:03;10.45;;;2.60;;
15240;SDS011;7723;52.170;9.978;2023-04-22T12:15:37;3.55;;;2.75;;
15240;SDS011;7723;52.170;9.978;2023-04-22T12:18:05;4.38;;;2.42;;
15240;SDS011;7723;52.170;9.978;2023-04-22T12:20:33;4.47;;;2.50;;
15240;SDS011;7723;52.170;9.978;2023-04-22T12:23:00;5.97;;;2.72;;
15240;SDS011;7723;52.170;9.978;2023-04-22T12:25:28;5.47;;;2.83;;
15240;SDS011;7723;52.170;9.978;2023-04-22T12:27:58;4.57;;;2.67;;
15240;SDS011;7723;52.170;9.978;2023-04-22T12:30:25;3.08;;;2.13;;
15240;SDS011;7723;52.170;9.978;2023-04-22T12:32:52;3.45;;;2.60;;
15240;SDS011;7723;52.170;9.978;2023-04-22T12:35:19;3.45;;;2.50;;
15240;SDS011;7723;52.170;9.978;2023-04-22T12:37:47;4.55;;;2.33;;
15240;SDS011;7723;52.170;9.978;2023-04-22T12:40:14;3.17;;;2.10;;
15240;SDS011;7723;52.170;9.978;2023-04-22T12:42:42;4.13;;;2.25;;
15240;SDS011;7723;52.170;9.978;2023-04-22T12:45:10;4.55;;;2.63;;
15240;SDS011;7723;52.170;9.978;2023-04-22T12:47:37;3.42;;;2.33;;
15240;SDS011;7723;52.170;9.978;2023-04-22T12:50:04;3.55;;;2.25;;
15240;SDS011;7723;52.170;9.978;2023-04-22T12:52:33;2.90;;;2.33;;
15240;SDS011;7723;52.170;9.978;2023-04-22T12:55:00;5.22;;;2.70;;
15240;SDS011;7723;52.170;9.978;2023-04-22T12:57:28;4.28;;;2.40;;
15240;SDS011;7723;52.170;9.978;2023-04-22T12:59:58;10.10;;;3.22;;
15240;SDS011;7723;52.170;9.978;2023-04-22T13:02:25;6.97;;;3.38;;
15240;SDS011;7723;52.170;9.978;2023-04-22T13:04:52;5.40;;;2.85;;
15240;SDS011;7723;52.170;9.978;2023-04-22T13:07:19;2.60;;;2.40;;
15240;SDS011;7723;52.170;9.978;2023-04-22T13:09:46;4.03;;;2.60;;
15240;SDS011;7723;52.170;9.978;2023-04-22T13:12:13;3.28;;;2.20;;
15240;SDS011;7723;52.170;9.978;2023-04-22T13:14:40;4.05;;;2.67;;
15240;SDS011;7723;52.170;9.978;2023-04-22T13:17:09;3.28;;;2.70;;
15240;SDS011;7723;52.170;9.978;2023-04-22T13:19:36;5.95;;;3.70;;
15240;SDS011;7723;52.170;9.978;2023-04-22T13:22:04;2.60;;;2.40;;
15240;SDS011;7723;52.170;9.978;2023-04-22T13:24:31;2.67;;;2.40;;
15240;SDS011;7723;52.170;9.978;2023-04-22T13:26:58;4.80;;;2.58;;
15240;SDS011;7723;52.170;9.978;2023-04-22T13:29:25;7.30;;;4.55;;
15240;SDS011;7723;52.170;9.978;2023-04-22T13:31:52;6.38;;;3.08;;
15240;SDS011;7723;52.170;9.978;2023-04-22T13:34:21;3.58;;;3.05;;
15240;SDS011;7723;52.170;9.978;2023-04-22T13:36:48;4.97;;;2.83;;
15240;SDS011;7723;52.170;9.978;2023-04-22T13:39:16;2.95;;;2.53;;
15240;SDS011;7723;52.170;9.978;2023-04-22T13:41:43;4.00;;;2.60;;
15240;SDS011;7723;52.170;9.978;2023-04-22T13:44:10;5.07;;;2.10;;
15240;SDS011;7723;52.170;9.978;2023-04-22T13:46:38;2.03;;;1.80;;
15240;SDS011;7723;52.170;9.978;2023-04-22T13:49:05;1.67;;;1.50;;
15240;SDS011;7723;52.170;9.978;2023-04-22T13:51:34;2.70;;;1.80;;
15240;SDS011;7723;52.170;9.978;2023-04-22T13:54:02;2.60;;;2.40;;
15240;SDS011;7723;52.170;9.978;2023-04-22T13:56:29;2.53;;;2.33;;
15240;SDS011;7723;52.170;9.978;2023-04-22T13:58:56;2.30;;;1.92;;
15240;SDS011;7723;52.170;9.978;2023-04-22T14:01:24;3.03;;;2.47;;
15240;SDS011;7723;52.170;9.978;2023-04-22T14:03:51;2.20;;;2.00;;
15240;SDS011;7723;52.170;9.978;2023-04-22T14:06:19;2.15;;;1.83;;
15240;SDS011;7723;52.170;9.978;2023-04-22T14:08:47;3.33;;;2.17;;
15240;SDS011;7723;52.170;9.978;2023-04-22T14:11:15;2.13;;;2.03;;
15240;SDS011;7723;52.170;9.978;2023-04-22T14:13:42;2.13;;;1.77;;
15240;SDS011;7723;52.170;9.978;2023-04-22T14:16:10;4.15;;;2.08;;
15240;SDS011;7723;52.170;9.978;2023-04-22T14:18:38;2.33;;;1.95;;
15240;SDS011;7723;52.170;9.978;2023-04-22T14:21:06;5.22;;;2.25;;
15240;SDS011;7723;52.170;9.978;2023-04-22T14:23:34;3.22;;;1.90;;
15240;SDS011;7723;52.170;9.978;2023-04-22T14:26:03;15.80;;;4.13;;
15240;SDS011;7723;52.170;9.978;2023-04-22T14:28:30;3.97;;;2.40;;
15240;SDS011;7723;52.170;9.978;2023-04-22T14:30:58;2.63;;;1.98;;
15240;SDS011;7723;52.170;9.978;2023-04-22T14:33:25;2.72;;;1.95;;
15240;SDS011;7723;52.170;9.978;2023-04-22T14:35:52;4.47;;;1.90;;
15240;SDS011;7723;52.170;9.978;2023-04-22T14:38:21;6.47;;;2.17;;
15240;SDS011;7723;52.170;9.978;2023-04-22T14:40:48;3.78;;;2.20;;
15240;SDS011;7723;52.170;9.978;2023-04-22T14:43:17;3.15;;;2.05;;
15240;SDS011;7723;52.170;9.978;2023-04-22T14:45:45;4.68;;;2.17;;
15240;SDS011;7723;52.170;9.978;2023-04-22T14:48:12;3.67;;;2.17;;
15240;SDS011;7723;52.170;9.978;2023-04-22T14:50:40;3.90;;;2.03;;
15240;SDS011;7723;52.170;9.978;2023-04-22T14:53:08;5.18;;;2.80;;
15240;SDS011;7723;52.170;9.978;2023-04-22T14:55:35;2.55;;;2.28;;
15240;SDS011;7723;52.170;9.978;2023-04-22T14:58:02;3.47;;;2.20;;
15240;SDS011;7723;52.170;9.978;2023-04-22T15:00:31;2.22;;;1.90;;
15240;SDS011;7723;52.170;9.978;2023-04-22T15:02:58;4.47;;;1.90;;
15240;SDS011;7723;52.170;9.978;2023-04-22T15:05:25;3.47;;;2.30;;